createdAt,value
2017-02-20T00:00:04.123Z,3.6
2017-02-20T00:00:22.763Z,3.6
2017-02-20T00:00:41.401Z,3.6
2017-02-20T00:01:00.036Z,3.6
2017-02-20T00:01:18.679Z,3.6
2017-02-20T00:01:37.321Z,3.6
2017-02-20T00:01:55.963Z,3.6
2017-02-20T00:02:14.601Z,3.6
2017-02-20T00:02:33.236Z,3.6
2017-02-20T00:02:51.878Z,3.6
2017-02-20T00:03:10.535Z,3.6
2017-02-20T00:03:29.228Z,3.6
2017-02-20T00:03:47.874Z,3.5
2017-02-20T00:04:06.523Z,3.5
2017-02-20T00:04:25.162Z,3.5
2017-02-20T00:04:43.801Z,3.5
2017-02-20T00:05:02.437Z,3.6
2017-02-20T00:05:21.076Z,3.6
2017-02-20T00:05:39.714Z,3.6
2017-02-20T00:05:58.358Z,3.5
2017-02-20T00:06:17.007Z,3.5
2017-02-20T00:06:35.657Z,3.5
2017-02-20T00:06:54.331Z,3.5
2017-02-20T00:07:12.978Z,3.5
2017-02-20T00:07:31.622Z,3.5
2017-02-20T00:07:50.257Z,3.5
2017-02-20T00:08:08.901Z,3.5
2017-02-20T00:08:27.546Z,3.5
2017-02-20T00:08:46.196Z,3.5
2017-02-20T00:09:04.873Z,3.5
2017-02-20T00:09:23.511Z,3.5
2017-02-20T00:09:42.185Z,3.5
2017-02-20T00:10:00.829Z,3.5
2017-02-20T00:10:19.470Z,3.5
2017-02-20T00:10:38.106Z,3.5
2017-02-20T00:10:56.753Z,3.5
2017-02-20T00:11:15.390Z,3.5
2017-02-20T00:11:34.043Z,3.5
2017-02-20T00:11:52.716Z,3.5
2017-02-20T00:12:11.360Z,3.5
2017-02-20T00:12:30.008Z,3.4
2017-02-20T00:12:48.647Z,3.4
2017-02-20T00:13:07.292Z,3.4
2017-02-20T00:13:25.925Z,3.4
2017-02-20T00:13:44.560Z,3.4
2017-02-20T00:14:03.200Z,3.4
2017-02-20T00:14:21.847Z,3.4
2017-02-20T00:14:40.493Z,3.4
2017-02-20T00:14:59.148Z,3.4
2017-02-20T00:15:17.792Z,3.4
2017-02-20T00:15:36.436Z,3.4
2017-02-20T00:15:55.089Z,3.4
2017-02-20T00:16:13.729Z,3.4
2017-02-20T00:16:32.373Z,3.4
2017-02-20T00:16:51.009Z,3.4
2017-02-20T00:17:09.650Z,3.4
2017-02-20T00:17:28.291Z,3.4
2017-02-20T00:17:46.939Z,3.4
2017-02-20T00:18:05.576Z,3.4
2017-02-20T00:18:24.241Z,3.4
2017-02-20T00:18:42.900Z,3.4
2017-02-20T00:19:01.535Z,3.4
2017-02-20T00:19:20.171Z,3.4
2017-02-20T00:19:38.820Z,3.4
2017-02-20T00:19:57.465Z,3.4
2017-02-20T00:20:16.108Z,3.4
2017-02-20T00:20:34.753Z,3.4
2017-02-20T00:20:53.405Z,3.3
2017-02-20T00:21:12.043Z,3.3
2017-02-20T00:21:30.685Z,3.3
2017-02-20T00:21:49.352Z,3.3
2017-02-20T00:22:07.987Z,3.3
2017-02-20T00:22:26.625Z,3.3
2017-02-20T00:22:45.264Z,3.2
2017-02-20T00:23:03.903Z,3.2
2017-02-20T00:23:22.541Z,3.2
2017-02-20T00:23:41.176Z,3.2
2017-02-20T00:23:59.830Z,3.1
2017-02-20T00:24:18.466Z,3.1
2017-02-20T00:24:37.113Z,3.1
2017-02-20T00:24:55.771Z,3.1
2017-02-20T00:25:14.429Z,3.1
2017-02-20T00:25:33.075Z,3.1
2017-02-20T00:25:51.727Z,3
2017-02-20T00:26:10.372Z,3
2017-02-20T00:26:29.009Z,3
2017-02-20T00:26:47.685Z,3
2017-02-20T00:27:06.325Z,3
2017-02-20T00:27:24.965Z,2.9
2017-02-20T00:27:43.619Z,2.9
2017-02-20T00:28:02.260Z,2.9
2017-02-20T00:28:20.912Z,2.9
2017-02-20T00:28:39.551Z,2.8
2017-02-20T00:28:58.190Z,2.8
2017-02-20T00:29:16.831Z,2.8
2017-02-20T00:29:35.477Z,2.8
2017-02-20T00:29:54.148Z,2.8
2017-02-20T00:30:12.794Z,2.7
2017-02-20T00:30:31.441Z,2.7
2017-02-20T00:30:50.084Z,2.7
2017-02-20T00:31:08.722Z,2.7
2017-02-20T00:31:27.364Z,2.7
2017-02-20T00:31:46.009Z,2.7
2017-02-20T00:32:04.648Z,2.7
2017-02-20T00:32:23.288Z,2.7
2017-02-20T00:32:41.929Z,2.7
2017-02-20T00:33:00.568Z,2.7
2017-02-20T00:33:19.231Z,2.7
2017-02-20T00:33:37.882Z,2.8
2017-02-20T00:33:56.541Z,2.8
2017-02-20T00:34:15.186Z,2.8
2017-02-20T00:34:33.825Z,2.8
2017-02-20T00:34:52.469Z,2.8
2017-02-20T00:35:11.119Z,2.8
2017-02-20T00:35:29.769Z,2.8
2017-02-20T00:35:48.419Z,2.8
2017-02-20T00:36:07.055Z,2.8
2017-02-20T00:36:25.701Z,2.8
2017-02-20T00:36:44.366Z,2.8
2017-02-20T00:37:03.008Z,2.8
2017-02-20T00:37:21.663Z,2.8
2017-02-20T00:37:40.312Z,2.7
2017-02-20T00:37:58.954Z,2.7
2017-02-20T00:38:17.621Z,2.7
2017-02-20T00:38:36.266Z,2.7
2017-02-20T00:38:54.910Z,2.7
2017-02-20T00:39:13.552Z,2.7
2017-02-20T00:39:32.187Z,2.6
2017-02-20T00:39:50.826Z,2.6
2017-02-20T00:40:09.467Z,2.6
2017-02-20T00:40:28.111Z,2.6
2017-02-20T00:40:46.762Z,2.5
2017-02-20T00:41:05.404Z,2.5
2017-02-20T00:41:24.054Z,2.4
2017-02-20T00:41:42.719Z,2.4
2017-02-20T00:42:01.368Z,2.3
2017-02-20T00:42:20.007Z,2.2
2017-02-20T00:42:38.657Z,2.2
2017-02-20T00:42:57.296Z,2.1
2017-02-20T00:43:15.939Z,2.1
2017-02-20T00:43:34.577Z,2
2017-02-20T00:43:53.216Z,2
2017-02-20T00:44:11.853Z,1.9
2017-02-20T00:44:30.493Z,1.9
2017-02-20T00:44:49.156Z,1.9
2017-02-20T00:45:07.794Z,1.8
2017-02-20T00:45:26.439Z,1.8
2017-02-20T00:45:45.085Z,1.8
2017-02-20T00:46:03.761Z,1.8
2017-02-20T00:46:22.401Z,1.8
2017-02-20T00:46:41.039Z,1.8
2017-02-20T00:46:59.676Z,1.8
2017-02-20T00:47:18.314Z,1.8
2017-02-20T00:47:36.955Z,1.7
2017-02-20T00:47:55.605Z,1.7
2017-02-20T00:48:14.277Z,1.8
2017-02-20T00:48:32.925Z,1.8
2017-02-20T00:48:51.573Z,1.8
2017-02-20T00:49:10.217Z,1.9
2017-02-20T00:49:28.861Z,1.9
2017-02-20T00:49:47.502Z,1.9
2017-02-20T00:50:06.136Z,1.9
2017-02-20T00:50:24.779Z,1.9
2017-02-20T00:50:43.433Z,1.9
2017-02-20T00:51:02.081Z,1.9
2017-02-20T00:51:20.734Z,1.9
2017-02-20T00:51:39.395Z,1.9
2017-02-20T00:51:58.035Z,1.9
2017-02-20T00:52:16.682Z,1.9
2017-02-20T00:52:35.334Z,1.9
2017-02-20T00:52:53.990Z,1.9
2017-02-20T00:53:12.671Z,1.9
2017-02-20T00:53:31.314Z,1.9
2017-02-20T00:53:49.957Z,1.8
2017-02-20T00:54:08.593Z,1.8
2017-02-20T00:54:27.241Z,1.8
2017-02-20T00:54:45.889Z,1.9
2017-02-20T00:55:04.528Z,1.9
2017-02-20T00:55:23.166Z,1.9
2017-02-20T00:55:41.813Z,1.9
2017-02-20T00:56:00.473Z,2
2017-02-20T00:56:19.148Z,2
2017-02-20T00:56:37.809Z,2
2017-02-20T00:56:56.444Z,2
2017-02-20T00:57:15.085Z,1.9
2017-02-20T00:57:33.750Z,1.9
2017-02-20T00:57:52.395Z,1.8
2017-02-20T00:58:11.050Z,1.8
2017-02-20T00:58:29.693Z,1.8
2017-02-20T00:58:48.331Z,1.8
2017-02-20T00:59:06.978Z,1.8
2017-02-20T00:59:25.618Z,1.7
2017-02-20T00:59:44.297Z,1.7
2017-02-20T01:00:02.941Z,1.7
2017-02-20T01:00:21.581Z,1.7
2017-02-20T01:00:40.228Z,1.6
2017-02-20T01:00:58.864Z,1.6
2017-02-20T01:01:17.507Z,1.6
2017-02-20T01:01:36.143Z,1.6
2017-02-20T01:01:54.799Z,1.5
2017-02-20T01:02:13.440Z,1.5
2017-02-20T01:02:32.077Z,1.5
2017-02-20T01:02:50.717Z,1.5
2017-02-20T01:03:09.382Z,1.5
2017-02-20T01:03:28.018Z,1.5
2017-02-20T01:03:46.687Z,1.5
2017-02-20T01:04:05.329Z,1.4
2017-02-20T01:04:23.980Z,1.4
2017-02-20T01:04:42.659Z,1.4
2017-02-20T01:05:01.297Z,1.4
2017-02-20T01:05:19.933Z,1.4
2017-02-20T01:05:38.579Z,1.4
2017-02-20T01:05:57.231Z,1.4
2017-02-20T01:06:15.880Z,1.4
2017-02-20T01:06:34.519Z,1.4
2017-02-20T01:06:53.156Z,1.4
2017-02-20T01:07:11.821Z,1.4
2017-02-20T01:07:30.463Z,1.4
2017-02-20T01:07:49.116Z,1.4
2017-02-20T01:08:07.755Z,1.4
2017-02-20T01:08:26.398Z,1.4
2017-02-20T01:08:45.040Z,1.4
2017-02-20T01:09:03.686Z,1.5
2017-02-20T01:09:22.327Z,1.5
2017-02-20T01:09:40.969Z,1.6
2017-02-20T01:09:59.614Z,1.6
2017-02-20T01:10:18.253Z,1.6
2017-02-20T01:10:36.891Z,1.7
2017-02-20T01:10:55.529Z,1.7
2017-02-20T01:11:14.197Z,1.7
2017-02-20T01:11:32.836Z,1.7
2017-02-20T01:11:51.484Z,1.7
2017-02-20T01:12:10.126Z,1.7
2017-02-20T01:12:28.777Z,1.8
2017-02-20T01:12:47.419Z,1.8
2017-02-20T01:13:06.069Z,1.8
2017-02-20T01:13:24.708Z,1.8
2017-02-20T01:13:43.352Z,1.9
2017-02-20T01:14:01.996Z,1.9
2017-02-20T01:14:20.634Z,1.9
2017-02-20T01:14:39.300Z,1.9
2017-02-20T01:14:57.944Z,1.9
2017-02-20T01:15:16.597Z,1.9
2017-02-20T01:15:35.238Z,1.9
2017-02-20T01:15:53.878Z,1.9
2017-02-20T01:16:12.528Z,2
2017-02-20T01:16:31.167Z,2
2017-02-20T01:16:49.810Z,2
2017-02-20T01:17:08.452Z,2.1
2017-02-20T01:17:27.098Z,2.1
2017-02-20T01:17:45.742Z,2.1
2017-02-20T01:18:04.412Z,2.1
2017-02-20T01:18:23.054Z,2.1
2017-02-20T01:18:41.692Z,2.2
2017-02-20T01:19:00.329Z,2.2
2017-02-20T01:19:18.973Z,2.2
2017-02-20T01:19:37.681Z,2.2
2017-02-20T01:19:56.320Z,2.2
2017-02-20T01:20:14.958Z,2.2
2017-02-20T01:20:33.607Z,2.2
2017-02-20T01:20:52.250Z,2.2
2017-02-20T01:21:10.890Z,2.2
2017-02-20T01:21:29.540Z,2.2
2017-02-20T01:21:48.178Z,2.2
2017-02-20T01:22:06.820Z,2.1
2017-02-20T01:22:25.468Z,2.1
2017-02-20T01:22:44.134Z,2.1
2017-02-20T01:23:02.787Z,2
2017-02-20T01:23:21.427Z,2
2017-02-20T01:23:40.076Z,2
2017-02-20T01:23:58.717Z,2
2017-02-20T01:24:17.364Z,2
2017-02-20T01:24:36.013Z,2.1
2017-02-20T01:24:54.653Z,2.1
2017-02-20T01:25:13.289Z,2
2017-02-20T01:25:31.930Z,2
2017-02-20T01:25:50.569Z,2
2017-02-20T01:26:09.245Z,2
2017-02-20T01:26:27.900Z,2
2017-02-20T01:26:46.543Z,2
2017-02-20T01:27:05.200Z,1.9
2017-02-20T01:27:23.838Z,1.9
2017-02-20T01:27:42.476Z,1.9
2017-02-20T01:28:01.125Z,1.9
2017-02-20T01:28:19.769Z,1.8
2017-02-20T01:28:38.425Z,1.8
2017-02-20T01:28:57.076Z,1.8
2017-02-20T01:29:15.718Z,1.8
2017-02-20T01:29:34.403Z,1.8
2017-02-20T01:29:53.043Z,1.9
2017-02-20T01:30:11.694Z,1.8
2017-02-20T01:30:30.336Z,1.8
2017-02-20T01:30:48.977Z,1.9
2017-02-20T01:31:07.660Z,1.9
2017-02-20T01:31:26.303Z,1.9
2017-02-20T01:31:44.947Z,1.9
2017-02-20T01:32:03.589Z,1.9
2017-02-20T01:32:22.235Z,2
2017-02-20T01:32:40.878Z,2
2017-02-20T01:32:59.524Z,2
2017-02-20T01:33:18.165Z,2
2017-02-20T01:33:36.826Z,2.1
2017-02-20T01:33:55.468Z,2.1
2017-02-20T01:34:14.127Z,2.2
2017-02-20T01:34:32.778Z,2.3
2017-02-20T01:34:51.432Z,2.3
2017-02-20T01:35:10.075Z,2.4
2017-02-20T01:35:28.734Z,2.4
2017-02-20T01:35:47.370Z,2.4
2017-02-20T01:36:06.015Z,2.5
2017-02-20T01:36:24.670Z,2.5
2017-02-20T01:36:43.318Z,2.5
2017-02-20T01:37:01.967Z,2.5
2017-02-20T01:37:20.608Z,2.5
2017-02-20T01:37:39.277Z,2.6
2017-02-20T01:37:57.926Z,2.6
2017-02-20T01:38:16.569Z,2.6
2017-02-20T01:38:35.214Z,2.6
2017-02-20T01:38:53.872Z,2.6
2017-02-20T01:39:12.519Z,2.6
2017-02-20T01:39:31.165Z,2.6
2017-02-20T01:39:49.802Z,2.6
2017-02-20T01:40:08.438Z,2.6
2017-02-20T01:40:27.079Z,2.6
2017-02-20T01:40:45.721Z,2.6
2017-02-20T01:41:04.393Z,2.6
2017-02-20T01:41:23.036Z,2.6
2017-02-20T01:41:41.676Z,2.7
2017-02-20T01:42:00.321Z,2.7
2017-02-20T01:42:18.957Z,2.7
2017-02-20T01:42:37.648Z,2.7
2017-02-20T01:42:56.284Z,2.8
2017-02-20T01:43:14.948Z,2.8
2017-02-20T01:43:33.596Z,2.8
2017-02-20T01:43:52.235Z,2.8
2017-02-20T01:44:10.899Z,2.9
2017-02-20T01:44:29.537Z,2.9
2017-02-20T01:44:48.180Z,2.9
2017-02-20T01:45:06.832Z,3
2017-02-20T01:45:25.472Z,3
2017-02-20T01:45:44.122Z,3
2017-02-20T01:46:02.768Z,3.1
2017-02-20T01:46:21.406Z,3.1
2017-02-20T01:46:40.051Z,3.1
2017-02-20T01:46:58.694Z,3.1
2017-02-20T01:47:17.342Z,3.1
2017-02-20T01:47:35.982Z,3.1
2017-02-20T01:47:54.626Z,3.1
2017-02-20T01:48:13.264Z,3.1
2017-02-20T01:48:31.897Z,3.1
2017-02-20T01:48:50.534Z,3.1
2017-02-20T01:49:09.208Z,3.2
2017-02-20T01:49:27.860Z,3.2
2017-02-20T01:49:46.518Z,3.2
2017-02-20T01:50:05.166Z,3.2
2017-02-20T01:50:23.808Z,3.2
2017-02-20T01:50:42.451Z,3.2
2017-02-20T01:51:01.110Z,3.2
2017-02-20T01:51:19.751Z,3.2
2017-02-20T01:51:38.395Z,3.2
2017-02-20T01:51:57.036Z,3.2
2017-02-20T01:52:15.678Z,3.2
2017-02-20T01:52:34.350Z,3.2
2017-02-20T01:52:52.987Z,3.2
2017-02-20T01:53:11.632Z,3.2
2017-02-20T01:53:30.280Z,3.2
2017-02-20T01:53:48.917Z,3.2
2017-02-20T01:54:07.577Z,3.2
2017-02-20T01:54:26.222Z,3.2
2017-02-20T01:54:44.895Z,3.2
2017-02-20T01:55:03.539Z,3.2
2017-02-20T01:55:22.189Z,3.2
2017-02-20T01:55:40.832Z,3.3
2017-02-20T01:55:59.476Z,3.3
2017-02-20T01:56:18.133Z,3.3
2017-02-20T01:56:36.776Z,3.3
2017-02-20T01:56:55.420Z,3.3
2017-02-20T01:57:14.079Z,3.3
2017-02-20T01:57:32.729Z,3.4
2017-02-20T01:57:51.366Z,3.4
2017-02-20T01:58:10.004Z,3.4
2017-02-20T01:58:28.640Z,3.4
2017-02-20T01:58:47.287Z,3.4
2017-02-20T01:59:05.927Z,3.3
2017-02-20T01:59:24.572Z,3.3
2017-02-20T01:59:43.206Z,3.3
2017-02-20T02:00:01.858Z,3.3
2017-02-20T02:00:20.504Z,3.3
2017-02-20T02:00:39.169Z,3.2
2017-02-20T02:00:57.807Z,3.2
2017-02-20T02:01:16.450Z,3.2
2017-02-20T02:01:35.093Z,3.2
2017-02-20T02:01:53.742Z,3.2
2017-02-20T02:02:12.387Z,3.2
2017-02-20T02:02:31.025Z,3.2
2017-02-20T02:02:49.663Z,3.2
2017-02-20T02:03:08.304Z,3.2
2017-02-20T02:03:26.951Z,3.2
2017-02-20T02:03:45.598Z,3.1
2017-02-20T02:04:04.257Z,3.1
2017-02-20T02:04:22.901Z,3.1
2017-02-20T02:04:41.551Z,3.1
2017-02-20T02:05:00.188Z,3.1
2017-02-20T02:05:18.847Z,3.1
2017-02-20T02:05:37.494Z,3.1
2017-02-20T02:05:56.140Z,3
2017-02-20T02:06:14.782Z,3
2017-02-20T02:06:33.424Z,3
2017-02-20T02:06:52.069Z,3
2017-02-20T02:07:10.712Z,3
2017-02-20T02:07:29.385Z,3.1
2017-02-20T02:07:48.027Z,3.1
2017-02-20T02:08:06.673Z,3.1
2017-02-20T02:08:25.313Z,3.1
2017-02-20T02:08:43.966Z,3.1
2017-02-20T02:09:02.639Z,3
2017-02-20T02:09:21.288Z,3
2017-02-20T02:09:39.929Z,2.9
2017-02-20T02:09:58.577Z,2.9
2017-02-20T02:10:17.218Z,2.8
2017-02-20T02:10:35.865Z,2.8
2017-02-20T02:10:54.501Z,2.7
2017-02-20T02:11:13.139Z,2.7
2017-02-20T02:11:31.776Z,2.6
2017-02-20T02:11:50.419Z,2.6
2017-02-20T02:12:09.074Z,2.5
2017-02-20T02:12:27.731Z,2.5
2017-02-20T02:12:46.378Z,2.4
2017-02-20T02:13:05.021Z,2.3
2017-02-20T02:13:23.657Z,2.3
2017-02-20T02:13:42.297Z,2.2
2017-02-20T02:14:00.934Z,2.2
2017-02-20T02:14:19.581Z,2.1
2017-02-20T02:14:38.225Z,2.1
2017-02-20T02:14:56.866Z,2.1
2017-02-20T02:15:15.503Z,2.1
2017-02-20T02:15:34.177Z,2.1
2017-02-20T02:15:52.837Z,2.1
2017-02-20T02:16:11.476Z,2.2
2017-02-20T02:16:30.114Z,2.2
2017-02-20T02:16:48.756Z,2.2
2017-02-20T02:17:07.400Z,2.3
2017-02-20T02:17:26.042Z,2.3
2017-02-20T02:17:44.680Z,2.3
2017-02-20T02:18:03.314Z,2.3
2017-02-20T02:18:21.955Z,2.4
2017-02-20T02:18:40.599Z,2.4
2017-02-20T02:18:59.270Z,2.4
2017-02-20T02:19:17.905Z,2.5
2017-02-20T02:19:36.545Z,2.5
2017-02-20T02:19:55.192Z,2.5
2017-02-20T02:20:13.828Z,2.5
2017-02-20T02:20:32.508Z,2.5
2017-02-20T02:20:51.145Z,2.5
2017-02-20T02:21:09.793Z,2.5
2017-02-20T02:21:28.436Z,2.5
2017-02-20T02:21:47.080Z,2.5
2017-02-20T02:22:05.724Z,2.4
2017-02-20T02:22:24.399Z,2.4
2017-02-20T02:22:43.048Z,2.4
2017-02-20T02:23:01.692Z,2.4
2017-02-20T02:23:20.330Z,2.4
2017-02-20T02:23:38.965Z,2.4
2017-02-20T02:23:57.648Z,2.4
2017-02-20T02:24:16.292Z,2.3
2017-02-20T02:24:34.944Z,2.3
2017-02-20T02:24:53.582Z,2.3
2017-02-20T02:25:12.220Z,2.3
2017-02-20T02:25:30.875Z,2.3
2017-02-20T02:25:49.520Z,2.2
2017-02-20T02:26:08.157Z,2.2
2017-02-20T02:26:26.808Z,2.2
2017-02-20T02:26:45.446Z,2.2
2017-02-20T02:27:04.092Z,2.2
2017-02-20T02:27:22.739Z,2.2
2017-02-20T02:27:41.387Z,2.2
2017-02-20T02:28:00.028Z,2.2
2017-02-20T02:28:18.671Z,2.3
2017-02-20T02:28:37.311Z,2.3
2017-02-20T02:28:55.960Z,2.3
2017-02-20T02:29:14.602Z,2.3
2017-02-20T02:29:33.257Z,2.4
2017-02-20T02:29:51.901Z,2.4
2017-02-20T02:30:10.550Z,2.4
2017-02-20T02:30:29.224Z,2.4
2017-02-20T02:30:47.861Z,2.4
2017-02-20T02:31:06.512Z,2.5
2017-02-20T02:31:25.154Z,2.5
2017-02-20T02:31:43.814Z,2.5
2017-02-20T02:32:02.455Z,2.5
2017-02-20T02:32:21.089Z,2.5
2017-02-20T02:32:39.743Z,2.6
2017-02-20T02:32:58.389Z,2.5
2017-02-20T02:33:17.042Z,2.6
2017-02-20T02:33:35.703Z,2.6
2017-02-20T02:33:54.376Z,2.7
2017-02-20T02:34:13.027Z,2.7
2017-02-20T02:34:31.673Z,2.7
2017-02-20T02:34:50.309Z,2.7
2017-02-20T02:35:08.954Z,2.8
2017-02-20T02:35:27.622Z,2.8
2017-02-20T02:35:46.276Z,2.8
2017-02-20T02:36:04.913Z,2.8
2017-02-20T02:36:23.550Z,2.9
2017-02-20T02:36:42.196Z,2.9
2017-02-20T02:37:00.846Z,2.9
2017-02-20T02:37:19.491Z,2.9
2017-02-20T02:37:38.130Z,3
2017-02-20T02:37:56.774Z,3
2017-02-20T02:38:15.417Z,3
2017-02-20T02:38:34.074Z,3
2017-02-20T02:38:52.736Z,3
2017-02-20T02:39:11.379Z,3.1
2017-02-20T02:39:30.020Z,3.1
2017-02-20T02:39:48.676Z,3.1
2017-02-20T02:40:07.316Z,3.2
2017-02-20T02:40:25.958Z,3.2
2017-02-20T02:40:44.598Z,3.2
2017-02-20T02:41:03.241Z,3.2
2017-02-20T02:41:21.881Z,3.2
2017-02-20T02:41:40.522Z,3.2
2017-02-20T02:41:59.181Z,3.2
2017-02-20T02:42:17.846Z,3.2
2017-02-20T02:42:36.489Z,3.2
2017-02-20T02:42:55.144Z,3.2
2017-02-20T02:43:13.789Z,3.3
2017-02-20T02:43:32.429Z,3.3
2017-02-20T02:43:51.070Z,3.3
2017-02-20T02:44:09.720Z,3.3
2017-02-20T02:44:28.355Z,3.3
2017-02-20T02:44:46.993Z,3.2
2017-02-20T02:45:05.635Z,3.2
2017-02-20T02:45:24.307Z,3.2
2017-02-20T02:45:42.947Z,3.2
2017-02-20T02:46:01.599Z,3.2
2017-02-20T02:46:20.238Z,3.2
2017-02-20T02:46:38.882Z,3.2
2017-02-20T02:46:57.529Z,3.2
2017-02-20T02:47:16.172Z,3.2
2017-02-20T02:47:34.820Z,3.2
2017-02-20T02:47:53.456Z,3.2
2017-02-20T02:48:12.111Z,3.1
2017-02-20T02:48:30.757Z,3.1
2017-02-20T02:48:49.417Z,3.1
2017-02-20T02:49:08.057Z,3.1
2017-02-20T02:49:26.704Z,3.1
2017-02-20T02:49:45.339Z,3.1
2017-02-20T02:50:03.978Z,3.1
2017-02-20T02:50:22.668Z,3.1
2017-02-20T02:50:41.309Z,3.1
2017-02-20T02:50:59.954Z,3.1
2017-02-20T02:51:18.606Z,3.1
2017-02-20T02:51:37.246Z,3.1
2017-02-20T02:51:55.889Z,3.1
2017-02-20T02:52:14.532Z,3.1
2017-02-20T02:52:33.172Z,3.1
2017-02-20T02:52:51.834Z,3.2
2017-02-20T02:53:10.484Z,3.1
2017-02-20T02:53:29.143Z,3.1
2017-02-20T02:53:47.782Z,3.1
2017-02-20T02:54:06.425Z,3.1
2017-02-20T02:54:25.064Z,3.1
2017-02-20T02:54:43.714Z,3.1
2017-02-20T02:55:02.368Z,3.1
2017-02-20T02:55:21.005Z,3.1
2017-02-20T02:55:39.654Z,3.1
2017-02-20T02:55:58.297Z,3.1
2017-02-20T02:56:16.934Z,3.1
2017-02-20T02:56:35.572Z,3.1
2017-02-20T02:56:54.267Z,3.1
2017-02-20T02:57:12.909Z,3.1
2017-02-20T02:57:31.550Z,3.1
2017-02-20T02:57:50.193Z,3.2
2017-02-20T02:58:08.848Z,3.2
2017-02-20T02:58:27.492Z,3.2
2017-02-20T02:58:46.137Z,3.1
2017-02-20T02:59:04.797Z,3.2
2017-02-20T02:59:23.440Z,3.2
2017-02-20T02:59:42.079Z,3.2
2017-02-20T03:00:00.722Z,3.2
2017-02-20T03:00:19.396Z,3.2
2017-02-20T03:00:38.037Z,3.2
2017-02-20T03:00:56.676Z,3.3
2017-02-20T03:01:15.317Z,3.3
2017-02-20T03:01:33.947Z,3.3
2017-02-20T03:01:52.597Z,3.3
2017-02-20T03:02:11.247Z,3.3
2017-02-20T03:02:29.893Z,3.3
2017-02-20T03:02:48.536Z,3.3
2017-02-20T03:03:07.210Z,3.3
2017-02-20T03:03:25.862Z,3.3
2017-02-20T03:03:44.499Z,3.3
2017-02-20T03:04:03.142Z,3.4
2017-02-20T03:04:21.780Z,3.4
2017-02-20T03:04:40.429Z,3.4
2017-02-20T03:04:59.087Z,3.4
2017-02-20T03:05:17.745Z,3.4
2017-02-20T03:05:36.386Z,3.4
2017-02-20T03:05:55.024Z,3.4
2017-02-20T03:06:13.692Z,3.4
2017-02-20T03:06:32.338Z,3.4
2017-02-20T03:06:50.977Z,3.4
2017-02-20T03:07:09.614Z,3.4
2017-02-20T03:07:28.258Z,3.4
2017-02-20T03:07:46.915Z,3.4
2017-02-20T03:08:05.557Z,3.4
2017-02-20T03:08:24.235Z,3.4
2017-02-20T03:08:42.892Z,3.4
2017-02-20T03:09:01.539Z,3.4
2017-02-20T03:09:20.183Z,3.4
2017-02-20T03:09:38.827Z,3.5
2017-02-20T03:09:57.468Z,3.5
2017-02-20T03:10:16.107Z,3.5
2017-02-20T03:10:34.756Z,3.5
2017-02-20T03:10:53.404Z,3.5
2017-02-20T03:11:12.051Z,3.5
2017-02-20T03:11:30.695Z,3.5
2017-02-20T03:11:49.359Z,3.5
2017-02-20T03:12:07.999Z,3.5
2017-02-20T03:12:26.647Z,3.5
2017-02-20T03:12:45.289Z,3.5
2017-02-20T03:13:03.966Z,3.4
2017-02-20T03:13:22.647Z,3.4
2017-02-20T03:13:41.293Z,3.4
2017-02-20T03:13:59.935Z,3.4
2017-02-20T03:14:18.589Z,3.4
2017-02-20T03:14:37.235Z,3.4
2017-02-20T03:14:55.876Z,3.4
2017-02-20T03:15:14.508Z,3.4
2017-02-20T03:15:33.161Z,3.4
2017-02-20T03:15:51.802Z,3.4
2017-02-20T03:16:10.447Z,3.4
2017-02-20T03:16:29.103Z,3.4
2017-02-20T03:16:47.745Z,3.4
2017-02-20T03:17:06.390Z,3.4
2017-02-20T03:17:25.032Z,3.4
2017-02-20T03:17:43.672Z,3.4
2017-02-20T03:18:02.318Z,3.4
2017-02-20T03:18:20.961Z,3.5
2017-02-20T03:18:39.604Z,3.4
2017-02-20T03:18:58.271Z,3.4
2017-02-20T03:19:16.937Z,3.5
2017-02-20T03:19:35.580Z,3.4
2017-02-20T03:19:54.262Z,3.4
2017-02-20T03:20:12.902Z,3.4
2017-02-20T03:20:31.548Z,3.4
2017-02-20T03:20:50.184Z,3.4
2017-02-20T03:21:08.825Z,3.4
2017-02-20T03:21:27.493Z,3.4
2017-02-20T03:21:46.136Z,3.4
2017-02-20T03:22:04.778Z,3.4
2017-02-20T03:22:23.420Z,3.4
2017-02-20T03:22:42.063Z,3.4
2017-02-20T03:23:00.707Z,3.4
2017-02-20T03:23:19.375Z,3.4
2017-02-20T03:23:38.013Z,3.4
2017-02-20T03:23:56.663Z,3.4
2017-02-20T03:24:15.313Z,3.4
2017-02-20T03:24:33.956Z,3.4
2017-02-20T03:24:52.654Z,3.4
2017-02-20T03:25:11.303Z,3.4
2017-02-20T03:25:29.944Z,3.4
2017-02-20T03:25:48.585Z,3.4
2017-02-20T03:26:07.226Z,3.5
2017-02-20T03:26:25.865Z,3.4
2017-02-20T03:26:44.513Z,3.5
2017-02-20T03:27:03.160Z,3.4
2017-02-20T03:27:21.800Z,3.4
2017-02-20T03:27:40.447Z,3.4
2017-02-20T03:27:59.109Z,3.4
2017-02-20T03:28:17.752Z,3.5
2017-02-20T03:28:36.395Z,3.4
2017-02-20T03:28:55.041Z,3.5
2017-02-20T03:29:13.683Z,3.4
2017-02-20T03:29:32.330Z,3.4
2017-02-20T03:29:50.993Z,3.4
2017-02-20T03:30:09.642Z,3.4
2017-02-20T03:30:28.284Z,3.4
2017-02-20T03:30:46.924Z,3.5
2017-02-20T03:31:05.563Z,3.5
2017-02-20T03:31:24.229Z,3.5
2017-02-20T03:31:42.865Z,3.4
2017-02-20T03:32:01.510Z,3.4
2017-02-20T03:32:20.155Z,3.4
2017-02-20T03:32:38.797Z,3.4
2017-02-20T03:32:57.438Z,3.4
2017-02-20T03:33:16.077Z,3.4
2017-02-20T03:33:34.716Z,3.4
2017-02-20T03:33:53.360Z,3.4
2017-02-20T03:34:11.996Z,3.4
2017-02-20T03:34:30.666Z,3.4
2017-02-20T03:34:49.350Z,3.4
2017-02-20T03:35:08.003Z,3.4
2017-02-20T03:35:26.644Z,3.4
2017-02-20T03:35:45.289Z,3.4
2017-02-20T03:36:03.925Z,3.4
2017-02-20T03:36:22.567Z,3.4
2017-02-20T03:36:41.215Z,3.4
2017-02-20T03:36:59.850Z,3.4
2017-02-20T03:37:18.492Z,3.4
2017-02-20T03:37:37.133Z,3.4
2017-02-20T03:37:55.779Z,3.4
2017-02-20T03:38:14.432Z,3.4
2017-02-20T03:38:33.074Z,3.4
2017-02-20T03:38:51.718Z,3.4
2017-02-20T03:39:10.366Z,3.4
2017-02-20T03:39:29.003Z,3.4
2017-02-20T03:39:47.687Z,3.4
2017-02-20T03:40:06.330Z,3.4
2017-02-20T03:40:24.987Z,3.4
2017-02-20T03:40:43.636Z,3.4
2017-02-20T03:41:02.275Z,3.4
2017-02-20T03:41:20.919Z,3.4
2017-02-20T03:41:39.558Z,3.4
2017-02-20T03:41:58.208Z,3.4
2017-02-20T03:42:16.848Z,3.4
2017-02-20T03:42:35.488Z,3.4
2017-02-20T03:42:54.147Z,3.4
2017-02-20T03:43:12.787Z,3.4
2017-02-20T03:43:31.435Z,3.4
2017-02-20T03:43:50.075Z,3.4
2017-02-20T03:44:08.718Z,3.4
2017-02-20T03:44:27.356Z,3.4
2017-02-20T03:44:45.992Z,3.4
2017-02-20T03:45:04.654Z,3.4
2017-02-20T03:45:23.296Z,3.4
2017-02-20T03:45:41.948Z,3.5
2017-02-20T03:46:00.587Z,3.4
2017-02-20T03:46:19.259Z,3.4
2017-02-20T03:46:37.899Z,3.5
2017-02-20T03:46:56.539Z,3.4
2017-02-20T03:47:15.202Z,3.4
2017-02-20T03:47:33.859Z,3.4
2017-02-20T03:47:52.517Z,3.4
2017-02-20T03:48:11.166Z,3.4
2017-02-20T03:48:29.807Z,3.4
2017-02-20T03:48:48.445Z,3.4
2017-02-20T03:49:07.081Z,3.4
2017-02-20T03:49:25.722Z,3.4
2017-02-20T03:49:44.396Z,3.4
2017-02-20T03:50:03.034Z,3.4
2017-02-20T03:50:21.674Z,3.4
2017-02-20T03:50:40.318Z,3.4
2017-02-20T03:50:58.970Z,3.4
2017-02-20T03:51:17.653Z,3.4
2017-02-20T03:51:36.296Z,3.4
2017-02-20T03:51:54.960Z,3.4
2017-02-20T03:52:13.599Z,3.4
2017-02-20T03:52:32.245Z,3.4
2017-02-20T03:52:50.887Z,3.4
2017-02-20T03:53:09.522Z,3.4
2017-02-20T03:53:28.158Z,3.4
2017-02-20T03:53:46.818Z,3.4
2017-02-20T03:54:05.464Z,3.4
2017-02-20T03:54:24.115Z,3.4
2017-02-20T03:54:42.762Z,3.4
2017-02-20T03:55:01.402Z,3.4
2017-02-20T03:55:20.058Z,3.4
2017-02-20T03:55:38.698Z,3.4
2017-02-20T03:55:57.335Z,3.4
2017-02-20T03:56:15.997Z,3.4
2017-02-20T03:56:34.644Z,3.4
2017-02-20T03:56:53.293Z,3.4
2017-02-20T03:57:11.930Z,3.4
2017-02-20T03:57:30.582Z,3.4
2017-02-20T03:57:49.244Z,3.4
2017-02-20T03:58:07.889Z,3.4
2017-02-20T03:58:26.530Z,3.4
2017-02-20T03:58:45.176Z,3.4
2017-02-20T03:59:03.819Z,3.4
2017-02-20T03:59:22.469Z,3.4
2017-02-20T03:59:41.111Z,3.3
2017-02-20T03:59:59.751Z,3.3
2017-02-20T04:00:18.398Z,3.3
2017-02-20T04:00:37.041Z,3.3
2017-02-20T04:00:55.687Z,3.3
2017-02-20T04:01:14.366Z,3.3
2017-02-20T04:01:33.019Z,3.3
2017-02-20T04:01:51.665Z,3.3
2017-02-20T04:02:10.313Z,3.3
2017-02-20T04:02:28.959Z,3.3
2017-02-20T04:02:47.645Z,3.3
2017-02-20T04:03:06.288Z,3.3
2017-02-20T04:03:24.936Z,3.3
2017-02-20T04:03:43.582Z,3.2
2017-02-20T04:04:02.221Z,3.2
2017-02-20T04:04:20.862Z,3.2
2017-02-20T04:04:39.506Z,3.2
2017-02-20T04:04:58.148Z,3.2
2017-02-20T04:05:16.793Z,3.1
2017-02-20T04:05:35.439Z,3.1
2017-02-20T04:05:54.095Z,3.1
2017-02-20T04:06:12.743Z,3
2017-02-20T04:06:31.381Z,3
2017-02-20T04:06:50.038Z,2.9
2017-02-20T04:07:08.685Z,2.9
2017-02-20T04:07:27.327Z,2.9
2017-02-20T04:07:45.964Z,2.8
2017-02-20T04:08:04.607Z,2.8
2017-02-20T04:08:23.243Z,2.8
2017-02-20T04:08:41.881Z,2.8
2017-02-20T04:09:00.530Z,2.8
2017-02-20T04:09:19.199Z,2.8
2017-02-20T04:09:37.837Z,2.8
2017-02-20T04:09:56.482Z,2.8
2017-02-20T04:10:15.123Z,2.8
2017-02-20T04:10:33.759Z,2.8
2017-02-20T04:10:52.399Z,2.8
2017-02-20T04:11:11.050Z,2.9
2017-02-20T04:11:29.697Z,2.9
2017-02-20T04:11:48.347Z,2.9
2017-02-20T04:12:06.994Z,2.9
2017-02-20T04:12:25.641Z,2.9
2017-02-20T04:12:44.306Z,2.9
2017-02-20T04:13:02.948Z,3
2017-02-20T04:13:21.607Z,3
2017-02-20T04:13:40.266Z,3
2017-02-20T04:13:58.940Z,3
2017-02-20T04:14:17.580Z,3
2017-02-20T04:14:36.223Z,3
2017-02-20T04:14:54.863Z,3
2017-02-20T04:15:13.502Z,3
2017-02-20T04:15:32.141Z,3
2017-02-20T04:15:50.782Z,3
2017-02-20T04:16:09.436Z,3
2017-02-20T04:16:28.085Z,3.1
2017-02-20T04:16:46.732Z,3.1
2017-02-20T04:17:05.376Z,3.1
2017-02-20T04:17:24.033Z,3.2
2017-02-20T04:17:42.714Z,3.1